sensor_id;sensor_type;location;lat;lon;timestamp;temperature;humidity
10891;DHT22;5498;50.928;11.598;2022-10-31T00:02:11;12.40;91.70
10891;DHT22;5498;50.928;11.598;2022-10-31T00:05:13;12.20;91.70
10891;DHT22;5498;50.928;11.598;2022-10-31T00:08:16;12.20;91.90
10891;DHT22;5498;50.928;11.598;2022-10-31T00:11:18;12.20;91.90
10891;DHT22;5498;50.928;11.598;2022-10-31T00:14:20;12.10;91.90
10891;DHT22;5498;50.928;11.598;2022-10-31T00:17:24;12.10;91.80
10891;DHT22;5498;50.928;11.598;2022-10-31T00:20:27;12.10;91.70
10891;DHT22;5498;50.928;11.598;2022-10-31T00:23:30;12.10;91.90
10891;DHT22;5498;50.928;11.598;2022-10-31T00:26:32;12.10;92.00
10891;DHT22;5498;50.928;11.598;2022-10-31T00:29:34;12.10;91.70
10891;DHT22;5498;50.928;11.598;2022-10-31T00:32:38;12.00;91.70
10891;DHT22;5498;50.928;11.598;2022-10-31T00:35:40;12.00;91.80
10891;DHT22;5498;50.928;11.598;2022-10-31T00:38:42;12.00;91.70
10891;DHT22;5498;50.928;11.598;2022-10-31T00:41:45;11.90;91.90
10891;DHT22;5498;50.928;11.598;2022-10-31T00:44:47;11.90;91.80
10891;DHT22;5498;50.928;11.598;2022-10-31T00:47:50;12.00;91.60
10891;DHT22;5498;50.928;11.598;2022-10-31T00:50:52;11.90;91.40
10891;DHT22;5498;50.928;11.598;2022-10-31T00:53:54;11.90;91.50
10891;DHT22;5498;50.928;11.598;2022-10-31T00:56:56;12.20;91.60
10891;DHT22;5498;50.928;11.598;2022-10-31T00:59:58;11.80;91.80
10891;DHT22;5498;50.928;11.598;2022-10-31T01:03:02;11.80;91.70
10891;DHT22;5498;50.928;11.598;2022-10-31T01:06:06;11.80;91.70
10891;DHT22;5498;50.928;11.598;2022-10-31T01:09:09;11.80;91.70
10891;DHT22;5498;50.928;11.598;2022-10-31T01:12:11;11.80;91.40
10891;DHT22;5498;50.928;11.598;2022-10-31T01:15:15;11.70;91.30
10891;DHT22;5498;50.928;11.598;2022-10-31T01:18:21;11.60;91.80
10891;DHT22;5498;50.928;11.598;2022-10-31T01:21:24;11.60;91.80
10891;DHT22;5498;50.928;11.598;2022-10-31T01:24:27;11.60;92.00
10891;DHT22;5498;50.928;11.598;2022-10-31T01:27:30;11.50;91.70
10891;DHT22;5498;50.928;11.598;2022-10-31T01:30:33;11.50;91.90
10891;DHT22;5498;50.928;11.598;2022-10-31T01:33:37;11.90;91.80
10891;DHT22;5498;50.928;11.598;2022-10-31T01:36:39;11.70;91.60
10891;DHT22;5498;50.928;11.598;2022-10-31T01:39:41;11.50;91.60
10891;DHT22;5498;50.928;11.598;2022-10-31T01:42:43;11.40;91.70
10891;DHT22;5498;50.928;11.598;2022-10-31T01:45:49;11.40;91.50
10891;DHT22;5498;50.928;11.598;2022-10-31T01:48:55;11.40;92.10
10891;DHT22;5498;50.928;11.598;2022-10-31T01:52:02;11.70;92.10
10891;DHT22;5498;50.928;11.598;2022-10-31T01:55:09;11.30;92.10
10891;DHT22;5498;50.928;11.598;2022-10-31T01:58:15;11.60;92.20
10891;DHT22;5498;50.928;11.598;2022-10-31T02:01:20;11.30;92.00
10891;DHT22;5498;50.928;11.598;2022-10-31T02:04:25;11.40;91.90
10891;DHT22;5498;50.928;11.598;2022-10-31T02:07:31;11.40;92.00
10891;DHT22;5498;50.928;11.598;2022-10-31T02:10:37;11.20;92.00
10891;DHT22;5498;50.928;11.598;2022-10-31T02:13:39;11.10;92.10
10891;DHT22;5498;50.928;11.598;2022-10-31T02:16:41;11.00;92.00
10891;DHT22;5498;50.928;11.598;2022-10-31T02:19:50;10.90;92.10
10891;DHT22;5498;50.928;11.598;2022-10-31T02:23:25;10.90;92.20
10891;DHT22;5498;50.928;11.598;2022-10-31T02:27:02;10.80;92.30
10891;DHT22;5498;50.928;11.598;2022-10-31T02:30:12;10.70;92.60
10891;DHT22;5498;50.928;11.598;2022-10-31T02:33:23;10.90;92.80
10891;DHT22;5498;50.928;11.598;2022-10-31T02:36:31;10.70;92.80
10891;DHT22;5498;50.928;11.598;2022-10-31T02:39:40;10.70;92.80
10891;DHT22;5498;50.928;11.598;2022-10-31T02:42:52;10.70;92.80
10891;DHT22;5498;50.928;11.598;2022-10-31T02:46:01;10.70;92.70
10891;DHT22;5498;50.928;11.598;2022-10-31T02:49:14;10.80;92.70
10891;DHT22;5498;50.928;11.598;2022-10-31T02:52:21;11.20;92.70
10891;DHT22;5498;50.928;11.598;2022-10-31T02:55:46;10.80;92.50
10891;DHT22;5498;50.928;11.598;2022-10-31T02:58:56;10.80;92.40
10891;DHT22;5498;50.928;11.598;2022-10-31T03:02:12;10.90;92.50
10891;DHT22;5498;50.928;11.598;2022-10-31T03:05:32;10.70;92.50
10891;DHT22;5498;50.928;11.598;2022-10-31T03:08:43;10.70;92.40
10891;DHT22;5498;50.928;11.598;2022-10-31T03:11:53;10.70;92.40
10891;DHT22;5498;50.928;11.598;2022-10-31T03:15:05;11.10;92.60
10891;DHT22;5498;50.928;11.598;2022-10-31T03:18:18;10.60;92.50
10891;DHT22;5498;50.928;11.598;2022-10-31T03:21:29;11.00;92.70
10891;DHT22;5498;50.928;11.598;2022-10-31T03:24:37;10.50;92.60
10891;DHT22;5498;50.928;11.598;2022-10-31T03:27:42;10.50;92.60
10891;DHT22;5498;50.928;11.598;2022-10-31T03:30:46;10.50;92.80
10891;DHT22;5498;50.928;11.598;2022-10-31T03:33:51;11.00;92.90
10891;DHT22;5498;50.928;11.598;2022-10-31T03:36:57;10.50;92.60
10891;DHT22;5498;50.928;11.598;2022-10-31T03:40:05;10.50;92.60
10891;DHT22;5498;50.928;11.598;2022-10-31T03:43:12;10.50;92.60
10891;DHT22;5498;50.928;11.598;2022-10-31T03:46:17;10.40;92.60
10891;DHT22;5498;50.928;11.598;2022-10-31T03:49:20;10.40;92.50
10891;DHT22;5498;50.928;11.598;2022-10-31T03:52:28;10.40;92.50
10891;DHT22;5498;50.928;11.598;2022-10-31T03:55:38;10.30;92.50
10891;DHT22;5498;50.928;11.598;2022-10-31T03:58:44;10.30;92.40
10891;DHT22;5498;50.928;11.598;2022-10-31T04:01:52;10.20;92.40
10891;DHT22;5498;50.928;11.598;2022-10-31T04:05:00;10.20;92.40
10891;DHT22;5498;50.928;11.598;2022-10-31T04:08:07;10.20;92.40
10891;DHT22;5498;50.928;11.598;2022-10-31T04:11:12;10.20;92.40
10891;DHT22;5498;50.928;11.598;2022-10-31T04:14:15;10.60;92.60
10891;DHT22;5498;50.928;11.598;2022-10-31T04:17:21;10.30;92.30
10891;DHT22;5498;50.928;11.598;2022-10-31T04:20:31;10.20;92.20
10891;DHT22;5498;50.928;11.598;2022-10-31T04:23:36;10.20;92.30
10891;DHT22;5498;50.928;11.598;2022-10-31T04:26:38;10.60;92.30
10891;DHT22;5498;50.928;11.598;2022-10-31T04:29:40;10.10;92.10
10891;DHT22;5498;50.928;11.598;2022-10-31T04:32:42;10.60;92.40
10891;DHT22;5498;50.928;11.598;2022-10-31T04:35:44;10.10;92.50
10891;DHT22;5498;50.928;11.598;2022-10-31T04:38:47;10.10;92.50
10891;DHT22;5498;50.928;11.598;2022-10-31T04:41:49;10.10;92.30
10891;DHT22;5498;50.928;11.598;2022-10-31T04:44:51;10.00;92.40
10891;DHT22;5498;50.928;11.598;2022-10-31T04:47:53;10.00;92.40
10891;DHT22;5498;50.928;11.598;2022-10-31T04:50:59;10.00;92.30
10891;DHT22;5498;50.928;11.598;2022-10-31T04:54:02;10.00;92.50
10891;DHT22;5498;50.928;11.598;2022-10-31T04:57:05;10.00;92.20
10891;DHT22;5498;50.928;11.598;2022-10-31T05:00:08;9.90;92.20
10891;DHT22;5498;50.928;11.598;2022-10-31T05:03:11;9.90;92.40
10891;DHT22;5498;50.928;11.598;2022-10-31T05:06:13;9.90;92.30
10891;DHT22;5498;50.928;11.598;2022-10-31T05:09:18;9.80;92.40
10891;DHT22;5498;50.928;11.598;2022-10-31T05:12:20;9.80;92.40
10891;DHT22;5498;50.928;11.598;2022-10-31T05:15:23;9.70;92.50
10891;DHT22;5498;50.928;11.598;2022-10-31T05:18:26;9.70;92.70
10891;DHT22;5498;50.928;11.598;2022-10-31T05:21:28;9.70;92.50
10891;DHT22;5498;50.928;11.598;2022-10-31T05:24:32;9.70;92.60
10891;DHT22;5498;50.928;11.598;2022-10-31T05:27:34;9.70;92.50
10891;DHT22;5498;50.928;11.598;2022-10-31T05:30:36;9.70;92.50
10891;DHT22;5498;50.928;11.598;2022-10-31T05:33:38;9.70;92.50
10891;DHT22;5498;50.928;11.598;2022-10-31T05:36:40;9.80;92.30
10891;DHT22;5498;50.928;11.598;2022-10-31T05:39:46;9.70;92.00
10891;DHT22;5498;50.928;11.598;2022-10-31T05:42:51;10.20;92.30
10891;DHT22;5498;50.928;11.598;2022-10-31T05:45:54;9.70;92.30
10891;DHT22;5498;50.928;11.598;2022-10-31T05:48:56;9.60;92.20
10891;DHT22;5498;50.928;11.598;2022-10-31T05:51:58;9.90;92.20
10891;DHT22;5498;50.928;11.598;2022-10-31T05:55:01;9.90;92.40
10891;DHT22;5498;50.928;11.598;2022-10-31T05:58:04;9.50;92.60
10891;DHT22;5498;50.928;11.598;2022-10-31T06:01:06;9.50;92.30
10891;DHT22;5498;50.928;11.598;2022-10-31T06:04:08;9.50;92.60
10891;DHT22;5498;50.928;11.598;2022-10-31T06:07:10;9.40;92.60
10891;DHT22;5498;50.928;11.598;2022-10-31T06:10:13;9.40;92.60
10891;DHT22;5498;50.928;11.598;2022-10-31T06:13:16;9.40;92.70
10891;DHT22;5498;50.928;11.598;2022-10-31T06:16:18;9.50;92.60
10891;DHT22;5498;50.928;11.598;2022-10-31T06:19:21;9.40;92.60
10891;DHT22;5498;50.928;11.598;2022-10-31T06:22:23;9.50;92.60
10891;DHT22;5498;50.928;11.598;2022-10-31T06:25:27;9.70;92.60
10891;DHT22;5498;50.928;11.598;2022-10-31T06:28:29;9.80;92.70
10891;DHT22;5498;50.928;11.598;2022-10-31T06:31:31;9.50;92.50
10891;DHT22;5498;50.928;11.598;2022-10-31T06:34:33;9.50;92.40
10891;DHT22;5498;50.928;11.598;2022-10-31T06:37:35;9.60;92.40
10891;DHT22;5498;50.928;11.598;2022-10-31T06:40:38;9.60;92.20
10891;DHT22;5498;50.928;11.598;2022-10-31T06:43:40;9.60;92.10
10891;DHT22;5498;50.928;11.598;2022-10-31T06:46:42;9.60;92.30
10891;DHT22;5498;50.928;11.598;2022-10-31T06:49:44;9.60;92.20
10891;DHT22;5498;50.928;11.598;2022-10-31T06:52:50;9.60;92.30
10891;DHT22;5498;50.928;11.598;2022-10-31T06:55:55;9.60;92.50
10891;DHT22;5498;50.928;11.598;2022-10-31T06:58:57;9.60;92.30
10891;DHT22;5498;50.928;11.598;2022-10-31T07:01:59;9.60;92.30
10891;DHT22;5498;50.928;11.598;2022-10-31T07:05:02;10.00;92.40
10891;DHT22;5498;50.928;11.598;2022-10-31T07:08:06;9.70;92.50
10891;DHT22;5498;50.928;11.598;2022-10-31T07:11:11;10.20;92.60
10891;DHT22;5498;50.928;11.598;2022-10-31T07:14:13;9.70;92.30
10891;DHT22;5498;50.928;11.598;2022-10-31T07:17:15;9.70;92.30
10891;DHT22;5498;50.928;11.598;2022-10-31T07:20:17;9.80;92.20
10891;DHT22;5498;50.928;11.598;2022-10-31T07:23:19;9.80;92.20
10891;DHT22;5498;50.928;11.598;2022-10-31T07:26:24;9.90;92.50
10891;DHT22;5498;50.928;11.598;2022-10-31T07:29:28;10.40;92.20
10891;DHT22;5498;50.928;11.598;2022-10-31T07:32:37;9.70;92.10
10891;DHT22;5498;50.928;11.598;2022-10-31T07:35:40;10.00;92.30
10891;DHT22;5498;50.928;11.598;2022-10-31T07:38:42;10.10;92.20
10891;DHT22;5498;50.928;11.598;2022-10-31T07:41:45;10.10;92.00
10891;DHT22;5498;50.928;11.598;2022-10-31T07:44:47;10.10;92.00
10891;DHT22;5498;50.928;11.598;2022-10-31T07:47:51;10.20;92.20
10891;DHT22;5498;50.928;11.598;2022-10-31T07:50:54;10.30;92.40
10891;DHT22;5498;50.928;11.598;2022-10-31T07:53:56;10.40;92.20
10891;DHT22;5498;50.928;11.598;2022-10-31T07:57:00;10.60;92.00
10891;DHT22;5498;50.928;11.598;2022-10-31T08:00:03;10.80;91.80
10891;DHT22;5498;50.928;11.598;2022-10-31T08:03:06;10.90;91.90
10891;DHT22;5498;50.928;11.598;2022-10-31T08:06:09;11.00;91.70
10891;DHT22;5498;50.928;11.598;2022-10-31T08:09:11;11.10;91.40
10891;DHT22;5498;50.928;11.598;2022-10-31T08:12:14;11.20;91.30
10891;DHT22;5498;50.928;11.598;2022-10-31T08:15:16;11.20;91.30
10891;DHT22;5498;50.928;11.598;2022-10-31T08:18:18;11.20;91.70
10891;DHT22;5498;50.928;11.598;2022-10-31T08:21:22;11.20;91.30
10891;DHT22;5498;50.928;11.598;2022-10-31T08:24:24;11.30;91.50
10891;DHT22;5498;50.928;11.598;2022-10-31T08:27:28;11.30;91.60
10891;DHT22;5498;50.928;11.598;2022-10-31T08:30:32;11.30;91.70
10891;DHT22;5498;50.928;11.598;2022-10-31T08:33:35;11.40;91.60
10891;DHT22;5498;50.928;11.598;2022-10-31T08:36:38;11.40;91.60
10891;DHT22;5498;50.928;11.598;2022-10-31T08:39:40;11.50;91.40
10891;DHT22;5498;50.928;11.598;2022-10-31T08:42:44;11.60;91.60
10891;DHT22;5498;50.928;11.598;2022-10-31T08:45:48;11.60;91.60
10891;DHT22;5498;50.928;11.598;2022-10-31T08:48:51;11.80;91.90
10891;DHT22;5498;50.928;11.598;2022-10-31T08:51:53;11.90;91.70
10891;DHT22;5498;50.928;11.598;2022-10-31T08:54:55;12.10;91.60
10891;DHT22;5498;50.928;11.598;2022-10-31T08:57:58;12.40;91.50
10891;DHT22;5498;50.928;11.598;2022-10-31T09:01:01;12.70;91.40
10891;DHT22;5498;50.928;11.598;2022-10-31T09:04:03;12.90;91.20
10891;DHT22;5498;50.928;11.598;2022-10-31T09:07:05;13.10;90.80
10891;DHT22;5498;50.928;11.598;2022-10-31T09:10:07;13.40;90.70
10891;DHT22;5498;50.928;11.598;2022-10-31T09:13:12;13.60;90.40
10891;DHT22;5498;50.928;11.598;2022-10-31T09:16:15;13.90;90.20
10891;DHT22;5498;50.928;11.598;2022-10-31T09:19:17;14.10;89.90
10891;DHT22;5498;50.928;11.598;2022-10-31T09:22:19;14.40;89.30
10891;DHT22;5498;50.928;11.598;2022-10-31T09:25:21;14.60;88.80
10891;DHT22;5498;50.928;11.598;2022-10-31T09:28:24;14.80;88.00
10891;DHT22;5498;50.928;11.598;2022-10-31T09:31:26;14.90;87.40
10891;DHT22;5498;50.928;11.598;2022-10-31T09:34:28;15.00;87.30
10891;DHT22;5498;50.928;11.598;2022-10-31T09:37:30;15.60;87.40
10891;DHT22;5498;50.928;11.598;2022-10-31T09:40:35;15.30;87.10
10891;DHT22;5498;50.928;11.598;2022-10-31T09:43:46;15.40;87.20
10891;DHT22;5498;50.928;11.598;2022-10-31T09:46:57;15.50;86.60
10891;DHT22;5498;50.928;11.598;2022-10-31T09:50:15;15.70;86.60
10891;DHT22;5498;50.928;11.598;2022-10-31T09:53:25;15.90;86.60
10891;DHT22;5498;50.928;11.598;2022-10-31T09:56:32;16.00;86.30
10891;DHT22;5498;50.928;11.598;2022-10-31T09:59:39;16.20;85.90
10891;DHT22;5498;50.928;11.598;2022-10-31T10:02:46;16.50;86.30
10891;DHT22;5498;50.928;11.598;2022-10-31T10:05:53;16.70;85.20
10891;DHT22;5498;50.928;11.598;2022-10-31T10:08:58;16.90;84.70
10891;DHT22;5498;50.928;11.598;2022-10-31T10:12:09;17.20;83.80
10891;DHT22;5498;50.928;11.598;2022-10-31T10:19:03;17.60;82.30
10891;DHT22;5498;50.928;11.598;2022-10-31T10:22:22;17.80;82.40
10891;DHT22;5498;50.928;11.598;2022-10-31T10:25:34;18.00;82.00
10891;DHT22;5498;50.928;11.598;2022-10-31T10:28:44;18.30;81.40
10891;DHT22;5498;50.928;11.598;2022-10-31T10:31:51;18.50;80.40
10891;DHT22;5498;50.928;11.598;2022-10-31T10:34:59;19.10;80.80
10891;DHT22;5498;50.928;11.598;2022-10-31T10:38:12;18.80;80.00
10891;DHT22;5498;50.928;11.598;2022-10-31T10:41:19;19.40;80.00
10891;DHT22;5498;50.928;11.598;2022-10-31T10:44:23;19.10;79.00
10891;DHT22;5498;50.928;11.598;2022-10-31T10:47:42;19.30;77.70
10891;DHT22;5498;50.928;11.598;2022-10-31T10:50:48;19.40;78.70
10891;DHT22;5498;50.928;11.598;2022-10-31T10:54:04;19.60;78.00
10891;DHT22;5498;50.928;11.598;2022-10-31T10:57:22;19.70;77.70
10891;DHT22;5498;50.928;11.598;2022-10-31T11:00:34;19.80;77.40
10891;DHT22;5498;50.928;11.598;2022-10-31T11:03:39;19.90;76.60
10891;DHT22;5498;50.928;11.598;2022-10-31T11:06:41;20.30;76.10
10891;DHT22;5498;50.928;11.598;2022-10-31T11:09:43;19.60;73.80
10891;DHT22;5498;50.928;11.598;2022-10-31T11:13:00;20.70;74.50
10891;DHT22;5498;50.928;11.598;2022-10-31T11:16:07;20.80;74.70
10891;DHT22;5498;50.928;11.598;2022-10-31T11:19:17;20.50;73.60
10891;DHT22;5498;50.928;11.598;2022-10-31T11:22:20;20.50;73.00
10891;DHT22;5498;50.928;11.598;2022-10-31T11:25:25;20.90;72.60
10891;DHT22;5498;50.928;11.598;2022-10-31T11:28:29;20.60;73.10
10891;DHT22;5498;50.928;11.598;2022-10-31T11:31:34;20.60;72.80
10891;DHT22;5498;50.928;11.598;2022-10-31T11:34:42;20.60;72.90
10891;DHT22;5498;50.928;11.598;2022-10-31T11:37:47;20.60;73.90
10891;DHT22;5498;50.928;11.598;2022-10-31T11:40:56;21.00;73.60
10891;DHT22;5498;50.928;11.598;2022-10-31T11:44:01;20.70;73.30
10891;DHT22;5498;50.928;11.598;2022-10-31T11:47:05;20.70;73.20
10891;DHT22;5498;50.928;11.598;2022-10-31T11:50:14;20.70;73.10
10891;DHT22;5498;50.928;11.598;2022-10-31T11:53:27;20.50;72.30
10891;DHT22;5498;50.928;11.598;2022-10-31T11:56:40;20.60;73.20
10891;DHT22;5498;50.928;11.598;2022-10-31T11:59:51;20.20;72.80
10891;DHT22;5498;50.928;11.598;2022-10-31T12:03:10;20.10;73.50
10891;DHT22;5498;50.928;11.598;2022-10-31T12:06:18;20.00;74.20
10891;DHT22;5498;50.928;11.598;2022-10-31T12:09:24;20.00;74.50
10891;DHT22;5498;50.928;11.598;2022-10-31T12:13:11;20.10;74.60
10891;DHT22;5498;50.928;11.598;2022-10-31T12:16:25;20.10;74.70
10891;DHT22;5498;50.928;11.598;2022-10-31T12:19:37;20.10;74.60
10891;DHT22;5498;50.928;11.598;2022-10-31T12:22:52;20.10;74.50
10891;DHT22;5498;50.928;11.598;2022-10-31T12:26:09;20.20;74.80
10891;DHT22;5498;50.928;11.598;2022-10-31T12:29:27;20.20;74.90
10891;DHT22;5498;50.928;11.598;2022-10-31T12:32:57;20.10;74.60
10891;DHT22;5498;50.928;11.598;2022-10-31T12:36:35;20.50;74.70
10891;DHT22;5498;50.928;11.598;2022-10-31T12:39:50;20.10;75.00
10891;DHT22;5498;50.928;11.598;2022-10-31T12:43:08;20.10;75.50
10891;DHT22;5498;50.928;11.598;2022-10-31T12:46:25;20.20;76.10
10891;DHT22;5498;50.928;11.598;2022-10-31T12:49:42;20.30;76.40
10891;DHT22;5498;50.928;11.598;2022-10-31T12:52:56;20.40;76.60
10891;DHT22;5498;50.928;11.598;2022-10-31T12:56:16;20.00;76.40
10891;DHT22;5498;50.928;11.598;2022-10-31T12:59:31;19.90;76.70
10891;DHT22;5498;50.928;11.598;2022-10-31T13:02:38;19.80;76.90
10891;DHT22;5498;50.928;11.598;2022-10-31T13:05:48;19.70;77.20
10891;DHT22;5498;50.928;11.598;2022-10-31T13:08:55;19.60;77.60
10891;DHT22;5498;50.928;11.598;2022-10-31T13:12:09;19.60;77.90
10891;DHT22;5498;50.928;11.598;2022-10-31T13:15:18;19.60;78.00
10891;DHT22;5498;50.928;11.598;2022-10-31T13:18:26;19.60;77.90
10891;DHT22;5498;50.928;11.598;2022-10-31T13:21:34;20.00;78.30
10891;DHT22;5498;50.928;11.598;2022-10-31T13:24:44;19.50;78.60
10891;DHT22;5498;50.928;11.598;2022-10-31T13:27:56;19.40;78.90
10891;DHT22;5498;50.928;11.598;2022-10-31T13:31:00;19.50;79.00
10891;DHT22;5498;50.928;11.598;2022-10-31T13:34:08;19.50;79.10
10891;DHT22;5498;50.928;11.598;2022-10-31T13:37:19;19.40;79.30
10891;DHT22;5498;50.928;11.598;2022-10-31T13:40:36;19.40;79.50
10891;DHT22;5498;50.928;11.598;2022-10-31T13:43:55;19.30;80.00
10891;DHT22;5498;50.928;11.598;2022-10-31T13:47:01;19.30;80.70
10891;DHT22;5498;50.928;11.598;2022-10-31T13:50:14;19.30;79.70
10891;DHT22;5498;50.928;11.598;2022-10-31T13:53:22;19.40;79.90
10891;DHT22;5498;50.928;11.598;2022-10-31T13:56:37;19.30;80.30
10891;DHT22;5498;50.928;11.598;2022-10-31T13:59:47;19.30;80.70
10891;DHT22;5498;50.928;11.598;2022-10-31T14:02:53;19.30;80.90
10891;DHT22;5498;50.928;11.598;2022-10-31T14:05:56;19.20;81.10
10891;DHT22;5498;50.928;11.598;2022-10-31T14:08:58;19.20;81.00
10891;DHT22;5498;50.928;11.598;2022-10-31T14:12:03;19.20;81.10
10891;DHT22;5498;50.928;11.598;2022-10-31T14:15:16;19.20;81.60
10891;DHT22;5498;50.928;11.598;2022-10-31T14:18:22;19.20;81.50
10891;DHT22;5498;50.928;11.598;2022-10-31T14:21:28;19.70;81.60
10891;DHT22;5498;50.928;11.598;2022-10-31T14:24:36;19.20;82.10
10891;DHT22;5498;50.928;11.598;2022-10-31T14:27:46;19.30;83.10
10891;DHT22;5498;50.928;11.598;2022-10-31T14:30:54;18.80;83.60
10891;DHT22;5498;50.928;11.598;2022-10-31T14:33:58;18.70;84.10
10891;DHT22;5498;50.928;11.598;2022-10-31T14:37:32;18.60;84.50
10891;DHT22;5498;50.928;11.598;2022-10-31T14:40:50;18.60;84.70
10891;DHT22;5498;50.928;11.598;2022-10-31T14:48:01;19.00;84.40
10891;DHT22;5498;50.928;11.598;2022-10-31T14:51:11;18.50;84.20
10891;DHT22;5498;50.928;11.598;2022-10-31T14:54:19;18.50;84.40
10891;DHT22;5498;50.928;11.598;2022-10-31T14:57:28;18.80;85.00
10891;DHT22;5498;50.928;11.598;2022-10-31T15:00:33;18.40;84.50
10891;DHT22;5498;50.928;11.598;2022-10-31T15:03:44;18.50;84.50
10891;DHT22;5498;50.928;11.598;2022-10-31T15:06:51;18.50;84.20
10891;DHT22;5498;50.928;11.598;2022-10-31T15:09:56;18.00;84.10
10891;DHT22;5498;50.928;11.598;2022-10-31T15:13:08;18.10;86.10
10891;DHT22;5498;50.928;11.598;2022-10-31T15:16:13;18.20;86.60
10891;DHT22;5498;50.928;11.598;2022-10-31T15:19:21;17.60;87.20
10891;DHT22;5498;50.928;11.598;2022-10-31T15:22:27;17.40;88.20
10891;DHT22;5498;50.928;11.598;2022-10-31T15:25:34;17.60;87.80
10891;DHT22;5498;50.928;11.598;2022-10-31T15:28:36;17.70;87.30
10891;DHT22;5498;50.928;11.598;2022-10-31T15:31:38;17.80;86.60
10891;DHT22;5498;50.928;11.598;2022-10-31T15:34:43;17.70;87.30
10891;DHT22;5498;50.928;11.598;2022-10-31T15:37:45;17.70;87.50
10891;DHT22;5498;50.928;11.598;2022-10-31T15:40:57;18.20;87.20
10891;DHT22;5498;50.928;11.598;2022-10-31T15:44:04;17.50;87.60
10891;DHT22;5498;50.928;11.598;2022-10-31T15:47:16;17.40;88.00
10891;DHT22;5498;50.928;11.598;2022-10-31T15:50:23;17.10;89.00
10891;DHT22;5498;50.928;11.598;2022-10-31T15:53:35;17.00;89.60
10891;DHT22;5498;50.928;11.598;2022-10-31T15:56:39;17.00;89.30
10891;DHT22;5498;50.928;11.598;2022-10-31T15:59:47;17.10;89.40
10891;DHT22;5498;50.928;11.598;2022-10-31T16:03:00;17.10;90.00
10891;DHT22;5498;50.928;11.598;2022-10-31T16:06:05;17.30;89.50
10891;DHT22;5498;50.928;11.598;2022-10-31T16:09:21;17.00;89.10
10891;DHT22;5498;50.928;11.598;2022-10-31T16:12:26;16.90;89.60
10891;DHT22;5498;50.928;11.598;2022-10-31T16:15:31;16.90;89.60
10891;DHT22;5498;50.928;11.598;2022-10-31T16:18:37;16.70;89.70
10891;DHT22;5498;50.928;11.598;2022-10-31T16:21:43;16.40;90.20
10891;DHT22;5498;50.928;11.598;2022-10-31T16:24:47;16.30;90.60
10891;DHT22;5498;50.928;11.598;2022-10-31T16:27:53;16.40;90.70
10891;DHT22;5498;50.928;11.598;2022-10-31T16:30:56;16.40;90.60
10891;DHT22;5498;50.928;11.598;2022-10-31T16:34:19;16.10;90.70
10891;DHT22;5498;50.928;11.598;2022-10-31T16:37:23;16.20;91.10
10891;DHT22;5498;50.928;11.598;2022-10-31T16:40:25;16.20;90.70
10891;DHT22;5498;50.928;11.598;2022-10-31T16:43:27;16.60;90.80
10891;DHT22;5498;50.928;11.598;2022-10-31T16:46:30;16.60;90.80
10891;DHT22;5498;50.928;11.598;2022-10-31T16:49:32;16.20;90.70
10891;DHT22;5498;50.928;11.598;2022-10-31T16:52:35;16.20;90.90
10891;DHT22;5498;50.928;11.598;2022-10-31T16:55:42;16.10;90.60
10891;DHT22;5498;50.928;11.598;2022-10-31T16:58:46;16.10;90.90
10891;DHT22;5498;50.928;11.598;2022-10-31T17:01:49;16.30;90.90
10891;DHT22;5498;50.928;11.598;2022-10-31T17:04:51;16.00;90.70
10891;DHT22;5498;50.928;11.598;2022-10-31T17:07:54;15.90;90.80
10891;DHT22;5498;50.928;11.598;2022-10-31T17:10:58;15.90;91.00
10891;DHT22;5498;50.928;11.598;2022-10-31T17:14:00;15.70;91.30
10891;DHT22;5498;50.928;11.598;2022-10-31T17:17:02;15.70;91.30
10891;DHT22;5498;50.928;11.598;2022-10-31T17:20:16;15.70;91.10
10891;DHT22;5498;50.928;11.598;2022-10-31T17:23:21;15.60;91.50
10891;DHT22;5498;50.928;11.598;2022-10-31T17:26:23;15.60;91.40
10891;DHT22;5498;50.928;11.598;2022-10-31T17:29:25;15.40;91.80
10891;DHT22;5498;50.928;11.598;2022-10-31T17:32:27;15.30;92.00
10891;DHT22;5498;50.928;11.598;2022-10-31T17:35:30;15.20;92.10
10891;DHT22;5498;50.928;11.598;2022-10-31T17:38:34;15.40;92.10
10891;DHT22;5498;50.928;11.598;2022-10-31T17:41:38;15.30;92.10
10891;DHT22;5498;50.928;11.598;2022-10-31T17:44:40;15.30;91.90
10891;DHT22;5498;50.928;11.598;2022-10-31T17:47:42;15.30;91.80
10891;DHT22;5498;50.928;11.598;2022-10-31T17:50:44;15.30;91.80
10891;DHT22;5498;50.928;11.598;2022-10-31T17:53:47;15.30;91.70
10891;DHT22;5498;50.928;11.598;2022-10-31T17:56:49;15.30;91.80
10891;DHT22;5498;50.928;11.598;2022-10-31T17:59:51;15.50;91.70
10891;DHT22;5498;50.928;11.598;2022-10-31T18:02:55;15.20;91.60
10891;DHT22;5498;50.928;11.598;2022-10-31T18:05:58;15.20;91.90
10891;DHT22;5498;50.928;11.598;2022-10-31T18:09:03;15.20;91.60
10891;DHT22;5498;50.928;11.598;2022-10-31T18:12:06;15.20;92.00
10891;DHT22;5498;50.928;11.598;2022-10-31T18:15:08;15.20;91.90
10891;DHT22;5498;50.928;11.598;2022-10-31T18:18:11;15.10;92.10
10891;DHT22;5498;50.928;11.598;2022-10-31T18:21:13;15.10;92.00
10891;DHT22;5498;50.928;11.598;2022-10-31T18:24:16;15.10;91.90
10891;DHT22;5498;50.928;11.598;2022-10-31T18:27:18;15.00;92.00
10891;DHT22;5498;50.928;11.598;2022-10-31T18:30:20;15.00;92.00
10891;DHT22;5498;50.928;11.598;2022-10-31T18:33:22;14.90;92.00
10891;DHT22;5498;50.928;11.598;2022-10-31T18:36:24;14.90;92.00
10891;DHT22;5498;50.928;11.598;2022-10-31T18:39:27;14.80;92.50
10891;DHT22;5498;50.928;11.598;2022-10-31T18:42:29;14.80;92.50
10891;DHT22;5498;50.928;11.598;2022-10-31T18:45:32;14.80;92.50
10891;DHT22;5498;50.928;11.598;2022-10-31T18:48:34;15.20;92.50
10891;DHT22;5498;50.928;11.598;2022-10-31T18:51:36;14.80;92.50
10891;DHT22;5498;50.928;11.598;2022-10-31T18:54:40;14.80;92.40
10891;DHT22;5498;50.928;11.598;2022-10-31T18:57:42;14.80;92.20
10891;DHT22;5498;50.928;11.598;2022-10-31T19:00:44;14.70;92.30
10891;DHT22;5498;50.928;11.598;2022-10-31T19:03:51;14.70;92.30
10891;DHT22;5498;50.928;11.598;2022-10-31T19:06:54;14.70;92.40
10891;DHT22;5498;50.928;11.598;2022-10-31T19:10:01;14.70;92.20
10891;DHT22;5498;50.928;11.598;2022-10-31T19:13:03;14.60;92.40
10891;DHT22;5498;50.928;11.598;2022-10-31T19:16:09;14.60;92.40
10891;DHT22;5498;50.928;11.598;2022-10-31T19:19:15;14.50;92.40
10891;DHT22;5498;50.928;11.598;2022-10-31T19:22:18;14.50;92.30
10891;DHT22;5498;50.928;11.598;2022-10-31T19:25:22;14.40;92.00
10891;DHT22;5498;50.928;11.598;2022-10-31T19:28:28;14.40;92.10
10891;DHT22;5498;50.928;11.598;2022-10-31T19:31:31;14.40;92.50
10891;DHT22;5498;50.928;11.598;2022-10-31T19:34:33;14.30;92.20
10891;DHT22;5498;50.928;11.598;2022-10-31T19:37:35;14.30;92.30
10891;DHT22;5498;50.928;11.598;2022-10-31T19:40:39;14.20;92.40
10891;DHT22;5498;50.928;11.598;2022-10-31T19:43:42;14.20;92.40
10891;DHT22;5498;50.928;11.598;2022-10-31T19:46:44;14.10;92.40